createdAt,value
2023-02-06T00:09:13.349Z,1
2023-02-06T00:19:13.721Z,0.8
2023-02-06T00:39:15.059Z,0.3
2023-02-06T00:49:15.673Z,0
2023-02-06T00:59:16.737Z,-0.1
2023-02-06T01:19:17.754Z,-0.5
2023-02-06T01:29:18.450Z,-0.5
2023-02-06T01:39:19.175Z,-0.6
2023-02-06T01:49:19.480Z,-0.6
2023-02-06T01:59:19.902Z,-0.6
2023-02-06T02:19:21.083Z,-0.8
2023-02-06T02:29:22.066Z,-0.8
2023-02-06T02:39:23.092Z,-0.9
2023-02-06T02:49:23.242Z,-0.9
2023-02-06T02:59:23.359Z,-0.9
2023-02-06T03:09:24.037Z,-1
2023-02-06T03:19:24.622Z,-1.1
2023-02-06T03:29:25.465Z,-1
2023-02-06T03:39:25.968Z,-1.1
2023-02-06T03:49:26.796Z,-1.1
2023-02-06T03:59:27.375Z,-1.2
2023-02-06T04:09:27.791Z,-1.2
2023-02-06T04:19:27.944Z,-1.3
2023-02-06T04:29:28.624Z,-1.3
2023-02-06T04:39:29.120Z,-1.4
2023-02-06T04:49:29.831Z,-1.3
2023-02-06T04:59:30.504Z,-1.3
2023-02-06T05:09:30.649Z,-1.2
2023-02-06T05:19:31.436Z,-1.1
2023-02-06T05:29:31.974Z,-1.1
2023-02-06T05:39:32.737Z,-1.1
2023-02-06T05:49:33.400Z,-1
2023-02-06T05:59:34.069Z,-0.9
2023-02-06T06:09:34.953Z,-0.9
2023-02-06T06:19:36.015Z,-0.9
2023-02-06T06:29:36.890Z,-0.9
2023-02-06T06:39:37.139Z,-0.9
2023-02-06T06:49:38.174Z,-0.9
2023-02-06T07:09:39.646Z,-1
2023-02-06T07:19:40.062Z,-0.9
2023-02-06T07:29:40.459Z,-0.8
2023-02-06T07:49:41.218Z,-0.5
2023-02-06T07:59:41.814Z,-0.4
2023-02-06T08:09:42.275Z,-0.4
2023-02-06T08:19:42.393Z,-0.3
2023-02-06T08:29:42.725Z,-0.2
2023-02-06T08:39:43.080Z,-0.2
2023-02-06T08:59:44.479Z,0.2
2023-02-06T09:09:45.202Z,0.4
2023-02-06T09:19:45.599Z,0.5
2023-02-06T09:29:46.379Z,0.7
2023-02-06T09:39:47.155Z,1
2023-02-06T09:49:47.755Z,1.3
2023-02-06T09:59:48.573Z,1.4
2023-02-06T10:09:48.841Z,1.5
2023-02-06T10:19:49.099Z,1.6
2023-02-06T10:29:49.843Z,1.7
2023-02-06T10:39:50.315Z,1.9
2023-02-06T10:49:51.101Z,2.2
2023-02-06T10:59:53.362Z,2.5
2023-02-06T11:09:51.844Z,2.9
2023-02-06T11:39:53.444Z,3.3
2023-02-06T11:49:54.143Z,3.6
2023-02-06T11:59:54.837Z,3.8
2023-02-06T12:09:55.239Z,3.9
2023-02-06T12:19:55.415Z,4.1
2023-02-06T12:29:55.824Z,4.4
2023-02-06T12:39:56.433Z,4.7
2023-02-06T12:49:57.250Z,5
2023-02-06T12:59:58.772Z,5.2
2023-02-06T13:09:58.936Z,5.4
2023-02-06T13:30:00.787Z,5.7
2023-02-06T13:40:01.435Z,5.8
2023-02-06T13:50:02.155Z,5.8
2023-02-06T14:00:02.815Z,6
2023-02-06T14:30:04.253Z,6
2023-02-06T14:40:04.780Z,6
2023-02-06T14:50:05.238Z,5.9
2023-02-06T15:00:05.543Z,5.8
2023-02-06T15:10:06.015Z,5.7
2023-02-06T15:20:07.052Z,5.7
2023-02-06T15:30:07.829Z,5.7
2023-02-06T15:40:08.926Z,5.6
2023-02-06T15:50:08.992Z,5.5
2023-02-06T16:00:09.648Z,5.2
2023-02-06T16:10:10.660Z,5.3
2023-02-06T16:20:10.892Z,5.4
2023-02-06T16:40:12.348Z,5.3
2023-02-06T16:50:12.580Z,5.3
2023-02-06T17:20:13.262Z,4.4
2023-02-06T17:30:13.841Z,4
2023-02-06T17:50:14.855Z,3.4
2023-02-06T18:00:15.898Z,3.3
2023-02-06T18:20:17.424Z,2.8
2023-02-06T18:30:17.608Z,2.5
2023-02-06T18:40:18.627Z,2.3
2023-02-06T18:50:18.817Z,2.1
2023-02-06T19:00:19.223Z,2.1
2023-02-06T19:10:19.387Z,2
2023-02-06T19:20:20.172Z,1.8
2023-02-06T19:30:20.664Z,1.6
2023-02-06T19:40:21.320Z,1.4
2023-02-06T20:00:23.104Z,1.1
2023-02-06T20:20:25.228Z,0.7
2023-02-06T20:40:27.323Z,0.2
2023-02-06T20:50:29.196Z,-0.1
2023-02-06T21:10:28.162Z,-0.5
2023-02-06T21:20:28.534Z,-0.6
2023-02-06T21:40:30.240Z,-0.7
2023-02-06T22:00:31.296Z,0.7
2023-02-06T22:20:31.924Z,1.2
2023-02-06T22:30:32.860Z,1.1
2023-02-06T22:40:33.765Z,1.2
2023-02-06T22:50:34.895Z,1
2023-02-06T23:00:35.252Z,0.9
2023-02-06T23:10:35.834Z,0.7
2023-02-06T23:20:36.497Z,0.5
2023-02-06T23:30:37.295Z,0.3
2023-02-06T23:40:38.141Z,0.1
